sensor_id;sensor_type;location;lat;lon;timestamp;P1;durP1;ratioP1;P2;durP2;ratioP2
65210;SDS011;51794;52.758;55.792;2022-11-24T00:01:43;4.45;;;3.08;;
65210;SDS011;51794;52.758;55.792;2022-11-24T00:04:09;5.13;;;3.20;;
65210;SDS011;51794;52.758;55.792;2022-11-24T00:06:36;4.47;;;3.05;;
65210;SDS011;51794;52.758;55.792;2022-11-24T00:09:02;5.70;;;3.25;;
65210;SDS011;51794;52.758;55.792;2022-11-24T00:11:31;3.95;;;3.05;;
65210;SDS011;51794;52.758;55.792;2022-11-24T00:13:59;6.97;;;3.53;;
65210;SDS011;51794;52.758;55.792;2022-11-24T00:16:30;5.80;;;3.80;;
65210;SDS011;51794;52.758;55.792;2022-11-24T00:18:58;5.18;;;3.25;;
65210;SDS011;51794;52.758;55.792;2022-11-24T00:21:27;3.83;;;2.40;;
65210;SDS011;51794;52.758;55.792;2022-11-24T00:23:55;4.28;;;3.30;;
65210;SDS011;51794;52.758;55.792;2022-11-24T00:26:22;5.07;;;3.08;;
65210;SDS011;51794;52.758;55.792;2022-11-24T00:28:53;4.55;;;3.05;;
65210;SDS011;51794;52.758;55.792;2022-11-24T00:31:22;4.47;;;3.05;;
65210;SDS011;51794;52.758;55.792;2022-11-24T00:33:49;5.07;;;3.00;;
65210;SDS011;51794;52.758;55.792;2022-11-24T00:36:17;5.32;;;3.40;;
65210;SDS011;51794;52.758;55.792;2022-11-24T00:38:43;4.03;;;2.83;;
65210;SDS011;51794;52.758;55.792;2022-11-24T00:41:10;5.13;;;3.72;;
65210;SDS011;51794;52.758;55.792;2022-11-24T00:43:37;4.50;;;3.17;;
65210;SDS011;51794;52.758;55.792;2022-11-24T00:46:03;5.95;;;3.72;;
65210;SDS011;51794;52.758;55.792;2022-11-24T00:48:30;6.13;;;3.40;;
65210;SDS011;51794;52.758;55.792;2022-11-24T00:53:22;5.35;;;3.38;;
65210;SDS011;51794;52.758;55.792;2022-11-24T00:55:49;4.95;;;3.00;;
65210;SDS011;51794;52.758;55.792;2022-11-24T00:58:15;4.35;;;3.33;;
65210;SDS011;51794;52.758;55.792;2022-11-24T01:00:41;3.92;;;2.47;;
65210;SDS011;51794;52.758;55.792;2022-11-24T01:03:07;5.75;;;3.20;;
65210;SDS011;51794;52.758;55.792;2022-11-24T01:05:36;5.72;;;3.25;;
65210;SDS011;51794;52.758;55.792;2022-11-24T01:08:03;3.88;;;2.72;;
65210;SDS011;51794;52.758;55.792;2022-11-24T01:10:29;7.60;;;3.47;;
65210;SDS011;51794;52.758;55.792;2022-11-24T01:12:56;4.78;;;3.30;;
65210;SDS011;51794;52.758;55.792;2022-11-24T01:15:22;4.88;;;3.60;;
65210;SDS011;51794;52.758;55.792;2022-11-24T01:17:48;5.45;;;3.38;;
65210;SDS011;51794;52.758;55.792;2022-11-24T01:20:15;4.53;;;2.90;;
65210;SDS011;51794;52.758;55.792;2022-11-24T01:22:41;6.38;;;3.80;;
65210;SDS011;51794;52.758;55.792;2022-11-24T01:25:08;7.10;;;3.63;;
65210;SDS011;51794;52.758;55.792;2022-11-24T01:27:35;6.15;;;3.58;;
65210;SDS011;51794;52.758;55.792;2022-11-24T01:30:01;5.38;;;3.70;;
65210;SDS011;51794;52.758;55.792;2022-11-24T01:32:29;7.50;;;4.32;;
65210;SDS011;51794;52.758;55.792;2022-11-24T01:35:01;7.38;;;4.18;;
65210;SDS011;51794;52.758;55.792;2022-11-24T01:37:29;4.78;;;3.17;;
65210;SDS011;51794;52.758;55.792;2022-11-24T01:39:56;6.60;;;4.43;;
65210;SDS011;51794;52.758;55.792;2022-11-24T01:42:22;7.13;;;3.75;;
65210;SDS011;51794;52.758;55.792;2022-11-24T01:44:52;6.40;;;4.00;;
65210;SDS011;51794;52.758;55.792;2022-11-24T01:47:53;7.25;;;4.13;;
65210;SDS011;51794;52.758;55.792;2022-11-24T01:50:20;6.45;;;3.45;;
65210;SDS011;51794;52.758;55.792;2022-11-24T01:52:51;5.28;;;3.35;;
65210;SDS011;51794;52.758;55.792;2022-11-24T01:55:20;6.38;;;3.72;;
65210;SDS011;51794;52.758;55.792;2022-11-24T01:57:57;4.90;;;3.70;;
65210;SDS011;51794;52.758;55.792;2022-11-24T02:00:30;6.83;;;3.70;;
65210;SDS011;51794;52.758;55.792;2022-11-24T02:02:59;5.93;;;3.28;;
65210;SDS011;51794;52.758;55.792;2022-11-24T02:05:27;6.45;;;3.75;;
65210;SDS011;51794;52.758;55.792;2022-11-24T02:08:00;4.88;;;3.33;;
65210;SDS011;51794;52.758;55.792;2022-11-24T02:10:27;4.78;;;3.15;;
65210;SDS011;51794;52.758;55.792;2022-11-24T02:12:53;4.55;;;2.58;;
65210;SDS011;51794;52.758;55.792;2022-11-24T02:15:22;5.80;;;3.30;;
65210;SDS011;51794;52.758;55.792;2022-11-24T02:17:48;4.72;;;3.22;;
65210;SDS011;51794;52.758;55.792;2022-11-24T02:20:15;4.82;;;3.47;;
65210;SDS011;51794;52.758;55.792;2022-11-24T02:28:29;3.00;;;2.15;;
65210;SDS011;51794;52.758;55.792;2022-11-24T02:30:56;3.67;;;2.33;;
65210;SDS011;51794;52.758;55.792;2022-11-24T02:33:24;3.67;;;2.38;;
65210;SDS011;51794;52.758;55.792;2022-11-24T02:35:51;3.00;;;2.20;;
65210;SDS011;51794;52.758;55.792;2022-11-24T02:38:17;3.58;;;2.08;;
65210;SDS011;51794;52.758;55.792;2022-11-24T02:40:45;3.63;;;2.45;;
65210;SDS011;51794;52.758;55.792;2022-11-24T02:43:14;4.47;;;2.60;;
65210;SDS011;51794;52.758;55.792;2022-11-24T02:45:44;4.25;;;2.30;;
65210;SDS011;51794;52.758;55.792;2022-11-24T02:48:10;2.95;;;2.22;;
65210;SDS011;51794;52.758;55.792;2022-11-24T02:50:39;3.53;;;2.40;;
65210;SDS011;51794;52.758;55.792;2022-11-24T02:53:05;5.50;;;2.45;;
65210;SDS011;51794;52.758;55.792;2022-11-24T02:55:31;2.65;;;2.13;;
65210;SDS011;51794;52.758;55.792;2022-11-24T02:57:57;3.90;;;2.30;;
65210;SDS011;51794;52.758;55.792;2022-11-24T03:00:23;2.33;;;2.00;;
65210;SDS011;51794;52.758;55.792;2022-11-24T03:02:49;2.03;;;1.70;;
65210;SDS011;51794;52.758;55.792;2022-11-24T03:05:15;1.75;;;1.40;;
65210;SDS011;51794;52.758;55.792;2022-11-24T03:07:41;2.13;;;1.20;;
65210;SDS011;51794;52.758;55.792;2022-11-24T03:10:07;2.85;;;1.90;;
65210;SDS011;51794;52.758;55.792;2022-11-24T03:12:34;2.85;;;1.92;;
65210;SDS011;51794;52.758;55.792;2022-11-24T03:15:00;3.10;;;2.13;;
65210;SDS011;51794;52.758;55.792;2022-11-24T03:17:29;2.55;;;2.10;;
65210;SDS011;51794;52.758;55.792;2022-11-24T03:19:55;3.00;;;1.98;;
65210;SDS011;51794;52.758;55.792;2022-11-24T03:22:21;2.47;;;1.65;;
65210;SDS011;51794;52.758;55.792;2022-11-24T03:24:47;2.63;;;1.85;;
65210;SDS011;51794;52.758;55.792;2022-11-24T03:27:13;2.65;;;1.83;;
65210;SDS011;51794;52.758;55.792;2022-11-24T03:29:39;2.13;;;1.50;;
65210;SDS011;51794;52.758;55.792;2022-11-24T03:32:05;2.63;;;1.98;;
65210;SDS011;51794;52.758;55.792;2022-11-24T03:34:31;2.67;;;1.88;;
65210;SDS011;51794;52.758;55.792;2022-11-24T03:36:57;2.45;;;1.60;;
65210;SDS011;51794;52.758;55.792;2022-11-24T03:39:23;1.98;;;1.40;;
65210;SDS011;51794;52.758;55.792;2022-11-24T03:41:49;1.98;;;1.50;;
65210;SDS011;51794;52.758;55.792;2022-11-24T03:44:18;1.65;;;1.38;;
65210;SDS011;51794;52.758;55.792;2022-11-24T03:46:44;2.70;;;1.70;;
65210;SDS011;51794;52.758;55.792;2022-11-24T03:49:10;2.00;;;1.45;;
65210;SDS011;51794;52.758;55.792;2022-11-24T03:51:36;1.70;;;1.30;;
65210;SDS011;51794;52.758;55.792;2022-11-24T03:54:02;1.92;;;1.50;;
65210;SDS011;51794;52.758;55.792;2022-11-24T03:56:28;2.42;;;1.40;;
65210;SDS011;51794;52.758;55.792;2022-11-24T03:58:54;1.95;;;1.30;;
65210;SDS011;51794;52.758;55.792;2022-11-24T04:01:20;1.45;;;1.35;;
65210;SDS011;51794;52.758;55.792;2022-11-24T04:03:46;2.00;;;1.50;;
65210;SDS011;51794;52.758;55.792;2022-11-24T04:06:12;2.05;;;1.40;;
65210;SDS011;51794;52.758;55.792;2022-11-24T04:08:38;1.80;;;1.42;;
65210;SDS011;51794;52.758;55.792;2022-11-24T04:11:04;1.65;;;1.23;;
65210;SDS011;51794;52.758;55.792;2022-11-24T04:13:31;2.60;;;1.55;;
65210;SDS011;51794;52.758;55.792;2022-11-24T04:15:57;1.70;;;1.23;;
65210;SDS011;51794;52.758;55.792;2022-11-24T04:18:23;2.55;;;1.52;;
65210;SDS011;51794;52.758;55.792;2022-11-24T04:20:49;2.95;;;1.70;;
65210;SDS011;51794;52.758;55.792;2022-11-24T04:23:16;1.63;;;1.00;;
65210;SDS011;51794;52.758;55.792;2022-11-24T04:25:42;2.13;;;1.30;;
65210;SDS011;51794;52.758;55.792;2022-11-24T04:28:08;1.27;;;1.00;;
65210;SDS011;51794;52.758;55.792;2022-11-24T04:30:34;1.80;;;1.20;;
65210;SDS011;51794;52.758;55.792;2022-11-24T04:33:00;1.80;;;1.20;;
65210;SDS011;51794;52.758;55.792;2022-11-24T04:35:26;1.30;;;1.08;;
65210;SDS011;51794;52.758;55.792;2022-11-24T04:37:52;1.30;;;1.10;;
65210;SDS011;51794;52.758;55.792;2022-11-24T04:40:18;2.90;;;1.38;;
65210;SDS011;51794;52.758;55.792;2022-11-24T04:42:51;2.13;;;1.40;;
65210;SDS011;51794;52.758;55.792;2022-11-24T04:45:19;1.85;;;1.25;;
65210;SDS011;51794;52.758;55.792;2022-11-24T04:47:45;2.17;;;1.58;;
65210;SDS011;51794;52.758;55.792;2022-11-24T04:50:11;2.25;;;1.20;;
65210;SDS011;51794;52.758;55.792;2022-11-24T04:52:37;2.22;;;1.20;;
65210;SDS011;51794;52.758;55.792;2022-11-24T04:55:03;2.88;;;1.55;;
65210;SDS011;51794;52.758;55.792;2022-11-24T04:57:29;1.45;;;1.10;;
65210;SDS011;51794;52.758;55.792;2022-11-24T04:59:55;1.42;;;1.00;;
65210;SDS011;51794;52.758;55.792;2022-11-24T05:02:22;1.45;;;1.20;;
65210;SDS011;51794;52.758;55.792;2022-11-24T05:04:48;1.85;;;1.30;;
65210;SDS011;51794;52.758;55.792;2022-11-24T05:07:15;1.75;;;1.33;;
65210;SDS011;51794;52.758;55.792;2022-11-24T05:09:42;1.10;;;1.00;;
65210;SDS011;51794;52.758;55.792;2022-11-24T05:12:26;1.52;;;1.10;;
65210;SDS011;51794;52.758;55.792;2022-11-24T05:14:56;1.42;;;1.10;;
65210;SDS011;51794;52.758;55.792;2022-11-24T05:17:26;2.35;;;1.20;;
65210;SDS011;51794;52.758;55.792;2022-11-24T05:19:54;1.75;;;1.17;;
65210;SDS011;51794;52.758;55.792;2022-11-24T05:22:20;1.23;;;0.90;;
65210;SDS011;51794;52.758;55.792;2022-11-24T05:24:46;0.90;;;0.80;;
65210;SDS011;51794;52.758;55.792;2022-11-24T05:27:11;1.00;;;0.90;;
65210;SDS011;51794;52.758;55.792;2022-11-24T05:29:37;1.30;;;1.10;;
65210;SDS011;51794;52.758;55.792;2022-11-24T05:32:03;1.60;;;1.20;;
65210;SDS011;51794;52.758;55.792;2022-11-24T05:34:29;2.10;;;1.20;;
65210;SDS011;51794;52.758;55.792;2022-11-24T05:36:58;1.40;;;1.15;;
65210;SDS011;51794;52.758;55.792;2022-11-24T05:39:31;1.40;;;1.17;;
65210;SDS011;51794;52.758;55.792;2022-11-24T05:41:58;1.95;;;1.27;;
65210;SDS011;51794;52.758;55.792;2022-11-24T05:44:24;1.40;;;1.20;;
65210;SDS011;51794;52.758;55.792;2022-11-24T05:46:50;1.73;;;1.10;;
65210;SDS011;51794;52.758;55.792;2022-11-24T05:49:16;1.50;;;1.10;;
65210;SDS011;51794;52.758;55.792;2022-11-24T05:51:42;2.00;;;1.30;;
65210;SDS011;51794;52.758;55.792;2022-11-24T05:54:08;1.42;;;1.20;;
65210;SDS011;51794;52.758;55.792;2022-11-24T05:56:34;1.65;;;1.00;;
65210;SDS011;51794;52.758;55.792;2022-11-24T05:59:00;1.80;;;1.00;;
65210;SDS011;51794;52.758;55.792;2022-11-24T06:01:25;1.17;;;1.08;;
65210;SDS011;51794;52.758;55.792;2022-11-24T06:03:51;1.42;;;0.93;;
65210;SDS011;51794;52.758;55.792;2022-11-24T06:06:17;1.33;;;0.98;;
65210;SDS011;51794;52.758;55.792;2022-11-24T06:08:43;1.48;;;1.10;;
65210;SDS011;51794;52.758;55.792;2022-11-24T06:11:09;1.77;;;1.27;;
65210;SDS011;51794;52.758;55.792;2022-11-24T06:13:45;1.38;;;1.00;;
65210;SDS011;51794;52.758;55.792;2022-11-24T06:16:12;1.42;;;1.10;;
65210;SDS011;51794;52.758;55.792;2022-11-24T06:18:39;1.35;;;1.20;;
65210;SDS011;51794;52.758;55.792;2022-11-24T06:21:05;1.92;;;1.08;;
65210;SDS011;51794;52.758;55.792;2022-11-24T06:23:32;1.38;;;1.10;;
65210;SDS011;51794;52.758;55.792;2022-11-24T06:25:58;1.25;;;1.13;;
65210;SDS011;51794;52.758;55.792;2022-11-24T06:28:25;1.30;;;0.93;;
65210;SDS011;51794;52.758;55.792;2022-11-24T06:30:52;1.40;;;1.10;;
65210;SDS011;51794;52.758;55.792;2022-11-24T06:33:18;1.05;;;1.00;;
65210;SDS011;51794;52.758;55.792;2022-11-24T06:35:44;1.38;;;0.75;;
65210;SDS011;51794;52.758;55.792;2022-11-24T06:38:10;1.40;;;1.20;;
65210;SDS011;51794;52.758;55.792;2022-11-24T06:40:36;2.83;;;1.30;;
65210;SDS011;51794;52.758;55.792;2022-11-24T06:43:02;1.00;;;0.90;;
65210;SDS011;51794;52.758;55.792;2022-11-24T06:45:28;0.77;;;0.77;;
65210;SDS011;51794;52.758;55.792;2022-11-24T06:47:55;0.95;;;0.90;;
65210;SDS011;51794;52.758;55.792;2022-11-24T06:50:21;1.60;;;1.00;;
65210;SDS011;51794;52.758;55.792;2022-11-24T06:52:47;1.15;;;0.90;;
65210;SDS011;51794;52.758;55.792;2022-11-24T06:55:13;1.00;;;0.88;;
65210;SDS011;51794;52.758;55.792;2022-11-24T06:57:39;0.77;;;0.77;;
65210;SDS011;51794;52.758;55.792;2022-11-24T07:00:06;0.98;;;0.80;;
65210;SDS011;51794;52.758;55.792;2022-11-24T07:02:32;0.85;;;0.80;;
65210;SDS011;51794;52.758;55.792;2022-11-24T07:04:58;1.13;;;0.90;;
65210;SDS011;51794;52.758;55.792;2022-11-24T07:07:25;1.00;;;0.90;;
65210;SDS011;51794;52.758;55.792;2022-11-24T07:09:50;0.73;;;0.70;;
65210;SDS011;51794;52.758;55.792;2022-11-24T07:12:16;0.90;;;0.90;;
65210;SDS011;51794;52.758;55.792;2022-11-24T07:14:42;0.90;;;0.88;;
65210;SDS011;51794;52.758;55.792;2022-11-24T07:17:08;1.10;;;1.00;;
65210;SDS011;51794;52.758;55.792;2022-11-24T07:19:34;1.30;;;1.10;;
65210;SDS011;51794;52.758;55.792;2022-11-24T07:22:00;1.60;;;1.20;;
65210;SDS011;51794;52.758;55.792;2022-11-24T07:24:26;1.15;;;1.00;;
65210;SDS011;51794;52.758;55.792;2022-11-24T07:26:52;2.70;;;1.10;;
65210;SDS011;51794;52.758;55.792;2022-11-24T07:29:18;1.20;;;1.10;;
65210;SDS011;51794;52.758;55.792;2022-11-24T07:31:44;1.20;;;1.10;;
65210;SDS011;51794;52.758;55.792;2022-11-24T07:34:10;1.58;;;1.42;;
65210;SDS011;51794;52.758;55.792;2022-11-24T07:36:36;2.45;;;1.40;;
65210;SDS011;51794;52.758;55.792;2022-11-24T07:39:04;1.50;;;1.40;;
65210;SDS011;51794;52.758;55.792;2022-11-24T07:41:31;1.60;;;1.40;;
65210;SDS011;51794;52.758;55.792;2022-11-24T07:43:57;1.60;;;1.45;;
65210;SDS011;51794;52.758;55.792;2022-11-24T07:46:23;2.17;;;1.77;;
65210;SDS011;51794;52.758;55.792;2022-11-24T07:48:49;1.55;;;1.40;;
65210;SDS011;51794;52.758;55.792;2022-11-24T07:51:15;1.50;;;1.30;;
65210;SDS011;51794;52.758;55.792;2022-11-24T07:53:41;1.45;;;1.30;;
65210;SDS011;51794;52.758;55.792;2022-11-24T07:56:08;1.42;;;1.33;;
65210;SDS011;51794;52.758;55.792;2022-11-24T07:58:35;1.80;;;1.45;;
65210;SDS011;51794;52.758;55.792;2022-11-24T08:01:12;2.10;;;1.60;;
65210;SDS011;51794;52.758;55.792;2022-11-24T08:03:39;2.05;;;1.60;;
65210;SDS011;51794;52.758;55.792;2022-11-24T08:06:06;1.60;;;1.20;;
65210;SDS011;51794;52.758;55.792;2022-11-24T08:08:32;1.90;;;1.40;;
65210;SDS011;51794;52.758;55.792;2022-11-24T08:11:09;1.80;;;1.50;;
65210;SDS011;51794;52.758;55.792;2022-11-24T08:13:36;2.08;;;1.58;;
65210;SDS011;51794;52.758;55.792;2022-11-24T08:16:04;1.67;;;1.50;;
65210;SDS011;51794;52.758;55.792;2022-11-24T08:18:32;2.55;;;1.85;;
65210;SDS011;51794;52.758;55.792;2022-11-24T08:20:58;2.10;;;1.60;;
65210;SDS011;51794;52.758;55.792;2022-11-24T08:23:25;1.77;;;1.45;;
65210;SDS011;51794;52.758;55.792;2022-11-24T08:25:52;1.52;;;1.40;;
65210;SDS011;51794;52.758;55.792;2022-11-24T08:28:19;1.90;;;1.70;;
65210;SDS011;51794;52.758;55.792;2022-11-24T08:30:45;2.30;;;1.48;;
65210;SDS011;51794;52.758;55.792;2022-11-24T08:33:11;2.10;;;1.90;;
65210;SDS011;51794;52.758;55.792;2022-11-24T08:35:37;2.35;;;1.60;;
65210;SDS011;51794;52.758;55.792;2022-11-24T08:38:04;1.98;;;1.48;;
65210;SDS011;51794;52.758;55.792;2022-11-24T08:40:31;2.92;;;2.00;;
65210;SDS011;51794;52.758;55.792;2022-11-24T08:42:58;1.40;;;1.30;;
65210;SDS011;51794;52.758;55.792;2022-11-24T08:45:25;3.25;;;1.70;;
65210;SDS011;51794;52.758;55.792;2022-11-24T08:47:55;2.13;;;1.73;;
65210;SDS011;51794;52.758;55.792;2022-11-24T08:50:22;2.22;;;1.70;;
65210;SDS011;51794;52.758;55.792;2022-11-24T08:52:52;2.08;;;1.88;;
65210;SDS011;51794;52.758;55.792;2022-11-24T08:55:19;2.85;;;1.95;;
65210;SDS011;51794;52.758;55.792;2022-11-24T08:57:45;2.20;;;1.80;;
65210;SDS011;51794;52.758;55.792;2022-11-24T09:00:11;2.08;;;1.80;;
65210;SDS011;51794;52.758;55.792;2022-11-24T09:02:38;2.10;;;1.90;;
65210;SDS011;51794;52.758;55.792;2022-11-24T09:05:04;2.75;;;1.80;;
65210;SDS011;51794;52.758;55.792;2022-11-24T09:07:30;1.88;;;1.60;;
65210;SDS011;51794;52.758;55.792;2022-11-24T09:09:56;2.22;;;1.90;;
65210;SDS011;51794;52.758;55.792;2022-11-24T09:12:22;3.05;;;2.00;;
65210;SDS011;51794;52.758;55.792;2022-11-24T09:14:48;6.70;;;2.38;;
65210;SDS011;51794;52.758;55.792;2022-11-24T09:17:14;11.30;;;2.88;;
65210;SDS011;51794;52.758;55.792;2022-11-24T09:19:40;16.40;;;2.95;;
65210;SDS011;51794;52.758;55.792;2022-11-24T09:22:06;6.40;;;2.60;;
65210;SDS011;51794;52.758;55.792;2022-11-24T09:24:32;27.05;;;3.40;;
65210;SDS011;51794;52.758;55.792;2022-11-24T09:26:58;19.92;;;3.58;;
65210;SDS011;51794;52.758;55.792;2022-11-24T09:29:24;40.15;;;4.22;;
65210;SDS011;51794;52.758;55.792;2022-11-24T09:31:50;26.83;;;3.72;;
65210;SDS011;51794;52.758;55.792;2022-11-24T09:34:16;25.60;;;3.63;;
65210;SDS011;51794;52.758;55.792;2022-11-24T09:36:42;18.90;;;3.58;;
65210;SDS011;51794;52.758;55.792;2022-11-24T09:39:09;60.85;;;5.13;;
65210;SDS011;51794;52.758;55.792;2022-11-24T09:44:17;41.95;;;4.43;;
65210;SDS011;51794;52.758;55.792;2022-11-24T09:52:20;8.77;;;2.83;;
65210;SDS011;51794;52.758;55.792;2022-11-24T09:55:20;4.43;;;3.08;;
65210;SDS011;51794;52.758;55.792;2022-11-24T09:58:00;7.55;;;2.60;;
65210;SDS011;51794;52.758;55.792;2022-11-24T10:00:34;8.38;;;3.30;;
65210;SDS011;51794;52.758;55.792;2022-11-24T10:03:01;7.00;;;3.85;;
65210;SDS011;51794;52.758;55.792;2022-11-24T10:05:30;4.32;;;2.90;;
65210;SDS011;51794;52.758;55.792;2022-11-24T10:11:11;3.83;;;2.90;;
65210;SDS011;51794;52.758;55.792;2022-11-24T10:22:02;3.55;;;2.72;;
65210;SDS011;51794;52.758;55.792;2022-11-24T10:27:25;6.03;;;2.67;;
65210;SDS011;51794;52.758;55.792;2022-11-24T10:30:14;4.85;;;3.95;;
65210;SDS011;51794;52.758;55.792;2022-11-24T10:32:48;5.05;;;3.50;;
65210;SDS011;51794;52.758;55.792;2022-11-24T10:35:22;5.25;;;3.72;;
65210;SDS011;51794;52.758;55.792;2022-11-24T10:38:06;4.15;;;3.72;;
65210;SDS011;51794;52.758;55.792;2022-11-24T10:43:29;4.05;;;3.45;;
65210;SDS011;51794;52.758;55.792;2022-11-24T10:45:59;3.70;;;2.80;;
65210;SDS011;51794;52.758;55.792;2022-11-24T10:48:48;2.50;;;2.17;;
65210;SDS011;51794;52.758;55.792;2022-11-24T10:53:57;1.65;;;1.55;;
65210;SDS011;51794;52.758;55.792;2022-11-24T10:56:39;2.47;;;1.90;;
65210;SDS011;51794;52.758;55.792;2022-11-24T10:59:19;2.08;;;1.70;;
65210;SDS011;51794;52.758;55.792;2022-11-24T11:01:49;9.00;;;4.20;;
65210;SDS011;51794;52.758;55.792;2022-11-24T11:04:19;6.63;;;4.10;;
65210;SDS011;51794;52.758;55.792;2022-11-24T11:09:16;7.63;;;4.47;;
65210;SDS011;51794;52.758;55.792;2022-11-24T11:11:47;7.38;;;5.03;;
65210;SDS011;51794;52.758;55.792;2022-11-24T11:20:04;10.98;;;7.15;;
65210;SDS011;51794;52.758;55.792;2022-11-24T11:22:42;10.90;;;6.38;;
65210;SDS011;51794;52.758;55.792;2022-11-24T11:27:39;8.88;;;6.18;;
65210;SDS011;51794;52.758;55.792;2022-11-24T11:32:53;10.75;;;6.45;;
65210;SDS011;51794;52.758;55.792;2022-11-24T11:35:22;10.05;;;6.72;;
65210;SDS011;51794;52.758;55.792;2022-11-24T11:37:51;9.88;;;7.18;;
65210;SDS011;51794;52.758;55.792;2022-11-24T11:40:22;12.20;;;6.78;;
65210;SDS011;51794;52.758;55.792;2022-11-24T11:42:53;9.48;;;6.28;;
65210;SDS011;51794;52.758;55.792;2022-11-24T11:45:56;8.68;;;5.05;;
65210;SDS011;51794;52.758;55.792;2022-11-24T11:48:28;9.45;;;6.45;;
65210;SDS011;51794;52.758;55.792;2022-11-24T11:56:31;8.40;;;5.70;;
65210;SDS011;51794;52.758;55.792;2022-11-24T11:59:09;8.13;;;4.70;;
65210;SDS011;51794;52.758;55.792;2022-11-24T12:09:35;13.48;;;5.93;;
65210;SDS011;51794;52.758;55.792;2022-11-24T12:25:56;55.33;;;9.23;;
65210;SDS011;51794;52.758;55.792;2022-11-24T12:28:42;27.88;;;8.90;;
65210;SDS011;51794;52.758;55.792;2022-11-24T12:47:20;13.75;;;7.40;;
65210;SDS011;51794;52.758;55.792;2022-11-24T12:50:04;9.52;;;6.28;;
65210;SDS011;51794;52.758;55.792;2022-11-24T12:52:49;9.52;;;5.85;;
65210;SDS011;51794;52.758;55.792;2022-11-24T12:55:25;10.50;;;6.38;;
65210;SDS011;51794;52.758;55.792;2022-11-24T13:00:33;7.65;;;4.95;;
65210;SDS011;51794;52.758;55.792;2022-11-24T13:03:14;5.35;;;2.75;;
65210;SDS011;51794;52.758;55.792;2022-11-24T13:09:08;11.85;;;5.32;;
65210;SDS011;51794;52.758;55.792;2022-11-24T13:11:37;9.07;;;5.57;;
65210;SDS011;51794;52.758;55.792;2022-11-24T13:19:46;11.38;;;6.18;;
65210;SDS011;51794;52.758;55.792;2022-11-24T13:22:14;10.82;;;6.70;;
65210;SDS011;51794;52.758;55.792;2022-11-24T13:24:47;7.13;;;4.63;;
65210;SDS011;51794;52.758;55.792;2022-11-24T13:27:40;9.75;;;6.47;;
65210;SDS011;51794;52.758;55.792;2022-11-24T13:35:27;7.15;;;4.00;;
65210;SDS011;51794;52.758;55.792;2022-11-24T13:37:53;6.78;;;4.10;;
65210;SDS011;51794;52.758;55.792;2022-11-24T13:53:21;7.60;;;4.85;;
65210;SDS011;51794;52.758;55.792;2022-11-24T13:56:02;9.95;;;4.82;;
65210;SDS011;51794;52.758;55.792;2022-11-24T13:58:35;3.47;;;2.55;;
65210;SDS011;51794;52.758;55.792;2022-11-24T14:01:24;5.85;;;3.70;;
65210;SDS011;51794;52.758;55.792;2022-11-24T14:04:00;5.97;;;3.90;;
65210;SDS011;51794;52.758;55.792;2022-11-24T14:06:38;6.10;;;3.47;;
65210;SDS011;51794;52.758;55.792;2022-11-24T14:09:18;8.45;;;4.90;;
65210;SDS011;51794;52.758;55.792;2022-11-24T14:11:45;12.07;;;5.97;;
65210;SDS011;51794;52.758;55.792;2022-11-24T14:14:24;11.55;;;6.18;;
65210;SDS011;51794;52.758;55.792;2022-11-24T14:17:06;14.98;;;7.20;;
65210;SDS011;51794;52.758;55.792;2022-11-24T14:19:40;14.93;;;7.18;;
65210;SDS011;51794;52.758;55.792;2022-11-24T14:22:40;14.18;;;6.82;;
65210;SDS011;51794;52.758;55.792;2022-11-24T14:25:02;12.45;;;6.82;;
65210;SDS011;51794;52.758;55.792;2022-11-24T14:27:30;13.93;;;7.15;;
65210;SDS011;51794;52.758;55.792;2022-11-24T14:30:03;18.70;;;8.25;;
65210;SDS011;51794;52.758;55.792;2022-11-24T14:32:52;14.77;;;7.05;;
65210;SDS011;51794;52.758;55.792;2022-11-24T14:35:23;18.48;;;8.93;;
65210;SDS011;51794;52.758;55.792;2022-11-24T14:37:51;14.55;;;6.93;;
65210;SDS011;51794;52.758;55.792;2022-11-24T14:40:36;16.70;;;8.13;;
65210;SDS011;51794;52.758;55.792;2022-11-24T14:43:05;15.45;;;7.25;;
65210;SDS011;51794;52.758;55.792;2022-11-24T14:45:46;11.95;;;6.57;;
65210;SDS011;51794;52.758;55.792;2022-11-24T14:51:25;15.38;;;6.07;;
65210;SDS011;51794;52.758;55.792;2022-11-24T14:54:04;19.25;;;8.52;;
65210;SDS011;51794;52.758;55.792;2022-11-24T14:56:37;17.67;;;8.23;;
65210;SDS011;51794;52.758;55.792;2022-11-24T14:59:19;19.10;;;8.27;;
65210;SDS011;51794;52.758;55.792;2022-11-24T15:01:47;19.02;;;8.73;;
65210;SDS011;51794;52.758;55.792;2022-11-24T15:04:17;22.08;;;9.18;;
65210;SDS011;51794;52.758;55.792;2022-11-24T15:07:03;13.75;;;5.78;;
65210;SDS011;51794;52.758;55.792;2022-11-24T15:12:39;18.67;;;8.88;;
65210;SDS011;51794;52.758;55.792;2022-11-24T15:17:46;12.98;;;6.75;;
65210;SDS011;51794;52.758;55.792;2022-11-24T15:20:37;16.55;;;8.00;;
65210;SDS011;51794;52.758;55.792;2022-11-24T15:26:21;15.25;;;7.07;;
65210;SDS011;51794;52.758;55.792;2022-11-24T15:28:37;17.58;;;7.53;;
65210;SDS011;51794;52.758;55.792;2022-11-24T15:31:05;19.52;;;9.38;;
65210;SDS011;51794;52.758;55.792;2022-11-24T15:36:01;11.55;;;6.53;;
65210;SDS011;51794;52.758;55.792;2022-11-24T15:38:27;15.93;;;7.57;;
65210;SDS011;51794;52.758;55.792;2022-11-24T15:40:53;12.70;;;6.05;;
65210;SDS011;51794;52.758;55.792;2022-11-24T15:43:35;11.30;;;6.57;;
65210;SDS011;51794;52.758;55.792;2022-11-24T15:46:04;18.83;;;8.20;;
65210;SDS011;51794;52.758;55.792;2022-11-24T15:48:31;20.33;;;10.25;;
65210;SDS011;51794;52.758;55.792;2022-11-24T15:50:57;19.70;;;10.05;;
65210;SDS011;51794;52.758;55.792;2022-11-24T15:55:57;18.17;;;6.88;;
65210;SDS011;51794;52.758;55.792;2022-11-24T15:58:24;14.57;;;7.47;;
65210;SDS011;51794;52.758;55.792;2022-11-24T16:00:50;11.45;;;6.43;;
65210;SDS011;51794;52.758;55.792;2022-11-24T16:03:18;11.50;;;5.75;;
65210;SDS011;51794;52.758;55.792;2022-11-24T16:05:44;14.57;;;6.07;;
65210;SDS011;51794;52.758;55.792;2022-11-24T16:08:12;15.20;;;7.72;;
65210;SDS011;51794;52.758;55.792;2022-11-24T16:10:40;14.93;;;6.93;;
65210;SDS011;51794;52.758;55.792;2022-11-24T16:13:08;17.67;;;7.80;;
65210;SDS011;51794;52.758;55.792;2022-11-24T16:15:34;14.80;;;7.53;;
65210;SDS011;51794;52.758;55.792;2022-11-24T16:18:02;20.00;;;9.38;;
65210;SDS011;51794;52.758;55.792;2022-11-24T16:20:30;16.75;;;8.05;;
65210;SDS011;51794;52.758;55.792;2022-11-24T16:22:58;15.32;;;8.40;;
65210;SDS011;51794;52.758;55.792;2022-11-24T16:25:24;19.50;;;9.00;;
65210;SDS011;51794;52.758;55.792;2022-11-24T16:27:51;19.63;;;8.77;;
65210;SDS011;51794;52.758;55.792;2022-11-24T16:30:17;23.67;;;9.88;;
65210;SDS011;51794;52.758;55.792;2022-11-24T16:32:43;16.30;;;7.50;;
65210;SDS011;51794;52.758;55.792;2022-11-24T16:35:09;18.15;;;7.55;;
65210;SDS011;51794;52.758;55.792;2022-11-24T16:37:35;15.98;;;7.47;;
65210;SDS011;51794;52.758;55.792;2022-11-24T16:40:01;18.02;;;7.47;;
65210;SDS011;51794;52.758;55.792;2022-11-24T16:42:29;20.55;;;9.00;;
65210;SDS011;51794;52.758;55.792;2022-11-24T16:44:55;19.05;;;8.95;;
65210;SDS011;51794;52.758;55.792;2022-11-24T16:47:22;22.63;;;9.45;;
65210;SDS011;51794;52.758;55.792;2022-11-24T16:49:48;23.50;;;9.73;;
65210;SDS011;51794;52.758;55.792;2022-11-24T16:52:15;18.25;;;9.23;;
65210;SDS011;51794;52.758;55.792;2022-11-24T16:54:41;18.10;;;8.73;;
65210;SDS011;51794;52.758;55.792;2022-11-24T16:57:07;23.67;;;10.48;;
65210;SDS011;51794;52.758;55.792;2022-11-24T16:59:36;23.73;;;10.13;;
65210;SDS011;51794;52.758;55.792;2022-11-24T17:02:03;19.60;;;9.05;;